Time;durP1;ratioP1;P1;durP2;ratioP2;P2;SDS_P1;SDS_P2;PMS_P1;PMS_P2;Temp;Humidity;BMP_temperature;BMP_pressure;BME280_temperature;BME280_humidity;BME280_pressure;Samples;Min_cycle;Max_cycle;Signal;HPM_P1;HPM_P2
2022/03/11 00:00:43;;;;;;;11.13;6.57;;;;;;;7.53;53.44;101877.78;5073517;28;20070;-29
2022/03/11 00:03:13;;;;;;;13.32;7.80;;;;;;;7.49;53.83;101874.69;5074085;28;20040;-30
2022/03/11 00:05:41;;;;;;;12.27;7.47;;;;;;;7.43;54.06;101872.06;5074371;28;20479;-31
2022/03/11 00:08:10;;;;;;;12.52;7.70;;;;;;;7.38;54.34;101870.06;5073417;28;20056;-30
2022/03/11 00:10:39;;;;;;;12.13;7.82;;;;;;;7.33;54.41;101874.69;5073192;28;20415;-34
2022/03/11 00:13:07;;;;;;;12.40;8.18;;;;;;;7.28;55.00;101874.59;5064663;28;20485;-30
2022/03/11 00:15:35;;;;;;;13.35;7.95;;;;;;;7.22;54.96;101870.88;5074190;28;20087;-30
2022/03/11 00:18:03;;;;;;;12.77;7.55;;;;;;;7.20;55.61;101859.19;5074170;28;20041;-29
2022/03/11 00:20:31;;;;;;;11.57;7.53;;;;;;;7.16;55.57;101863.59;5073370;28;20041;-34
2022/03/11 00:23:01;;;;;;;12.10;7.65;;;;;;;7.14;56.13;101852.75;5073928;28;20165;-28
2022/03/11 00:25:31;;;;;;;10.73;6.97;;;;;;;7.11;56.37;101857.94;5072329;28;20045;-26
2022/03/11 00:28:00;;;;;;;13.18;8.00;;;;;;;7.05;56.69;101857.00;5073136;28;20079;-27
2022/03/11 00:30:28;;;;;;;10.70;7.45;;;;;;;7.00;57.27;101858.84;5072406;28;20048;-31
2022/03/11 00:32:56;;;;;;;11.20;7.38;;;;;;;6.95;57.47;101858.78;5073925;28;20109;-28
2022/03/11 00:35:24;;;;;;;11.65;7.60;;;;;;;6.92;57.64;101854.56;5072907;28;20048;-30
2022/03/11 00:37:51;;;;;;;11.93;7.40;;;;;;;6.86;58.00;101845.31;5073442;28;20044;-29
2022/03/11 00:40:19;;;;;;;11.30;6.93;;;;;;;6.83;58.24;101854.13;5072615;28;20052;-29
2022/03/11 00:42:48;;;;;;;13.63;7.65;;;;;;;6.77;58.83;101855.16;5071028;28;20680;-29
2022/03/11 00:45:16;;;;;;;11.02;6.95;;;;;;;6.72;59.42;101848.66;5070482;28;20044;-30
2022/03/11 00:47:44;;;;;;;11.80;7.30;;;;;;;6.68;59.66;101844.69;5072223;28;20143;-28
2022/03/11 00:50:12;;;;;;;11.85;7.43;;;;;;;6.64;59.69;101837.94;5070430;28;20419;-32
2022/03/11 00:52:41;;;;;;;13.35;7.68;;;;;;;6.58;60.35;101845.34;5068843;28;20405;-26
2022/03/11 00:55:11;;;;;;;10.40;7.25;;;;;;;6.55;60.36;101843.09;5072342;28;20098;-25
2022/03/11 00:57:39;;;;;;;10.82;6.88;;;;;;;6.53;60.90;101839.72;5072450;28;20397;-30
2022/03/11 01:00:09;;;;;;;11.43;6.80;;;;;;;6.51;60.42;101837.19;5073422;28;20144;-32
2022/03/11 01:02:39;;;;;;;11.75;7.45;;;;;;;6.48;60.65;101836.84;5072464;28;20484;-29
2022/03/11 01:05:08;;;;;;;10.93;7.00;;;;;;;6.47;60.98;101836.00;5073105;28;20041;-27
2022/03/11 01:07:36;;;;;;;10.23;6.32;;;;;;;6.45;61.00;101832.63;5072508;28;20072;-30
2022/03/11 01:10:26;;;;;;;11.60;7.03;;;;;;;6.42;61.07;101822.03;5072762;28;20055;-29
2022/03/11 01:12:54;;;;;;;10.55;6.90;;;;;;;6.42;60.87;101821.19;5073077;28;20044;-33
2022/03/11 01:15:24;;;;;;;11.75;7.22;;;;;;;6.43;61.08;101811.78;5072854;28;20049;-27
2022/03/11 01:17:52;;;;;;;11.25;7.43;;;;;;;6.43;60.85;101814.53;5072020;28;20576;-31
2022/03/11 01:20:19;;;;;;;12.93;8.02;;;;;;;6.44;60.53;101814.31;5073323;28;20043;-28
2022/03/11 01:22:47;;;;;;;11.82;7.53;;;;;;;6.44;60.69;101816.22;5073062;28;20139;-39
2022/03/11 01:25:15;;;;;;;12.40;7.45;;;;;;;6.45;60.48;101810.44;5071962;28;20077;-30
2022/03/11 01:27:43;;;;;;;14.30;8.02;;;;;;;6.45;60.41;101809.59;5072532;28;20052;-34
2022/03/11 01:30:13;;;;;;;12.35;7.72;;;;;;;6.45;60.21;101813.22;5072863;28;20064;-30
2022/03/11 01:32:43;;;;;;;11.82;7.40;;;;;;;6.44;60.51;101807.91;5071996;28;20048;-28
2022/03/11 01:35:12;;;;;;;11.98;7.85;;;;;;;6.43;60.31;101809.84;5072606;28;20044;-28
2022/03/11 01:37:40;;;;;;;15.80;8.82;;;;;;;6.42;60.63;101808.16;5071828;28;20041;-29
2022/03/11 01:40:09;;;;;;;12.48;8.02;;;;;;;6.44;60.53;101802.38;5072289;28;20048;-32
2022/03/11 01:42:37;;;;;;;12.25;7.75;;;;;;;6.46;60.11;101800.19;5072631;28;20489;-30
2022/03/11 01:45:06;;;;;;;12.10;7.68;;;;;;;6.44;60.35;101797.66;5071820;28;20480;-28
2022/03/11 01:47:33;;;;;;;14.70;8.70;;;;;;;6.42;60.50;101788.75;5072448;28;20053;-30
2022/03/11 01:50:04;;;;;;;13.88;8.15;;;;;;;6.43;60.26;101792.38;5061851;28;20045;-27
2022/03/11 01:52:31;;;;;;;14.95;9.00;;;;;;;6.38;60.78;101784.81;5070541;28;20052;-32
2022/03/11 01:54:59;;;;;;;14.05;8.65;;;;;;;6.39;60.65;101789.28;5072284;28;20428;-26
2022/03/11 01:57:27;;;;;;;14.98;8.88;;;;;;;6.37;60.52;101777.59;5072247;28;20057;-28
2022/03/11 01:59:57;;;;;;;14.05;8.38;;;;;;;6.34;60.72;101778.09;5068268;28;20044;-28
2022/03/11 02:02:26;;;;;;;14.38;9.07;;;;;;;6.33;61.06;101776.41;5072035;28;20049;-28
2022/03/11 02:04:54;;;;;;;14.02;9.25;;;;;;;6.33;61.11;101764.47;5070968;28;20400;-29
2022/03/11 02:07:23;;;;;;;17.17;9.70;;;;;;;6.27;61.58;101766.31;5071276;28;20378;-29
2022/03/11 02:09:50;;;;;;;14.60;9.85;;;;;;;6.25;61.56;101756.56;5072063;28;20058;-30
2022/03/11 02:12:29;;;;;;;13.32;8.90;;;;;;;6.25;61.54;101748.25;5072133;28;20062;-29
2022/03/11 02:14:57;;;;;;;15.23;9.15;;;;;;;6.18;62.14;101752.03;5070889;28;20045;-30
2022/03/11 02:17:25;;;;;;;13.93;8.32;;;;;;;6.17;62.12;101753.13;5071841;28;20052;-29
2022/03/11 02:19:53;;;;;;;12.77;8.95;;;;;;;6.15;62.39;101749.75;5070752;28;20060;-30
2022/03/11 02:22:24;;;;;;;15.10;9.30;;;;;;;6.17;62.01;101749.50;5071954;28;20044;-30
2022/03/11 02:24:55;;;;;;;14.45;8.88;;;;;;;6.14;62.24;101739.75;5071695;28;20041;-30
2022/03/11 02:27:23;;;;;;;14.85;9.00;;;;;;;6.10;62.90;101740.47;5071020;28;20048;-31
2022/03/11 02:29:51;;;;;;;13.43;8.93;;;;;;;6.10;62.46;101737.72;5071561;28;20048;-31
2022/03/11 02:32:19;;;;;;;14.32;9.27;;;;;;;6.08;62.55;101732.41;5071578;28;20238;-28
2022/03/11 02:34:46;;;;;;;13.30;8.98;;;;;;;6.07;62.60;101736.28;5071008;28;20056;-30
2022/03/11 02:37:14;;;;;;;15.82;9.40;;;;;;;6.06;62.73;101730.97;5071620;28;20043;-27
2022/03/11 02:39:42;;;;;;;14.15;9.15;;;;;;;6.05;62.66;101729.28;5071474;28;20056;-29
2022/03/11 02:42:11;;;;;;;16.70;9.20;;;;;;;6.02;62.95;101724.25;5070814;28;20059;-25
2022/03/11 02:44:40;;;;;;;15.20;9.68;;;;;;;6.00;62.99;101729.19;5071553;28;20049;-30
2022/03/11 02:47:07;;;;;;;13.35;8.63;;;;;;;5.96;63.05;101717.78;5071409;28;20044;-29
2022/03/11 02:49:35;;;;;;;12.48;8.30;;;;;;;5.94;63.38;101722.72;5070699;28;20024;-29
2022/03/11 02:52:04;;;;;;;13.85;8.77;;;;;;;5.92;63.74;101715.75;5060643;28;20049;-27
2022/03/11 02:54:31;;;;;;;15.80;9.35;;;;;;;5.91;63.87;101716.84;5070936;28;20365;-28
2022/03/11 02:56:59;;;;;;;14.20;8.68;;;;;;;5.88;63.92;101721.78;5070589;28;20085;-30
2022/03/11 02:59:28;;;;;;;13.32;7.78;;;;;;;5.90;63.70;101717.94;5071002;28;20104;-30
2022/03/11 03:01:58;;;;;;;13.07;8.30;;;;;;;5.85;63.87;101719.47;5067534;28;20106;-31
2022/03/11 03:04:26;;;;;;;14.50;8.82;;;;;;;5.84;63.84;101715.03;5071040;28;20786;-30
2022/03/11 03:06:55;;;;;;;12.70;8.27;;;;;;;5.83;63.92;101716.09;5071281;28;20048;-29
2022/03/11 03:09:22;;;;;;;15.02;9.88;;;;;;;5.82;64.23;101713.56;5070340;28;20063;-31
2022/03/11 03:11:50;;;;;;;13.60;8.85;;;;;;;5.81;64.43;101707.19;5070915;28;20049;-32
2022/03/11 03:14:18;;;;;;;12.10;7.95;;;;;;;5.82;64.28;101708.03;5073102;28;20048;-29
2022/03/11 03:16:47;;;;;;;15.18;9.15;;;;;;;5.81;64.40;101707.19;5074641;28;20054;-30
2022/03/11 03:19:15;;;;;;;12.43;8.57;;;;;;;5.81;64.21;101701.66;5075254;28;20122;-29
2022/03/11 03:21:43;;;;;;;15.82;8.85;;;;;;;5.80;64.52;101702.75;5075178;28;20045;-32
2022/03/11 03:24:11;;;;;;;13.85;8.88;;;;;;;5.80;64.02;101702.75;5074290;28;20045;-30
2022/03/11 03:26:38;;;;;;;11.30;8.05;;;;;;;5.82;63.97;101702.50;5074899;28;20045;-28
2022/03/11 03:29:06;;;;;;;14.52;9.10;;;;;;;5.81;63.87;101692.50;5075096;28;20040;-30
2022/03/11 03:31:34;;;;;;;13.73;8.90;;;;;;;5.79;64.00;101701.09;5074694;28;20044;-29
2022/03/11 03:34:03;;;;;;;11.65;8.25;;;;;;;5.77;64.32;101689.41;5075098;28;20045;-29
2022/03/11 03:36:31;;;;;;;14.27;9.38;;;;;;;5.80;64.17;101691.66;5074911;28;20417;-34
2022/03/11 03:38:58;;;;;;;14.88;8.93;;;;;;;5.79;63.71;101690.00;5074007;28;20389;-29
2022/03/11 03:41:26;;;;;;;12.48;8.05;;;;;;;5.80;63.87;101691.66;5074868;28;20404;-34
2022/03/11 03:43:53;;;;;;;12.93;8.68;;;;;;;5.80;63.72;101697.22;5074946;28;20052;-35
2022/03/11 03:46:21;;;;;;;13.25;9.02;;;;;;;5.79;63.94;101689.19;5073917;28;20041;-33
2022/03/11 03:48:49;;;;;;;12.48;7.90;;;;;;;5.77;63.95;101694.97;5074945;28;20044;-29
2022/03/11 03:51:18;;;;;;;13.20;8.63;;;;;;;5.75;64.01;101696.28;5073655;28;20071;-29
2022/03/11 03:53:46;;;;;;;13.40;8.57;;;;;;;5.71;64.13;101695.94;5074615;28;20044;-30
2022/03/11 03:56:14;;;;;;;13.85;8.70;;;;;;;5.69;64.26;101692.56;5074521;28;20045;-30
2022/03/11 03:58:41;;;;;;;13.48;9.00;;;;;;;5.66;64.67;101686.69;5072542;28;20064;-27
2022/03/11 04:01:09;;;;;;;15.05;9.30;;;;;;;5.63;64.97;101685.25;5074506;28;20047;-34
2022/03/11 04:03:37;;;;;;;15.15;9.45;;;;;;;5.63;64.92;101684.41;5074373;28;20044;-30
2022/03/11 04:06:05;;;;;;;15.73;9.13;;;;;;;5.60;64.85;101674.66;5073886;28;20456;-28
2022/03/11 04:08:34;;;;;;;13.77;9.32;;;;;;;5.61;65.11;101676.34;5074460;28;20435;-31
2022/03/11 04:11:02;;;;;;;11.98;8.05;;;;;;;5.58;64.88;101665.78;5065676;28;20041;-31
2022/03/11 04:13:30;;;;;;;12.90;8.85;;;;;;;5.54;65.24;101670.13;5073443;28;20496;-32
2022/03/11 04:15:58;;;;;;;15.90;9.63;;;;;;;5.53;65.57;101668.44;5073849;28;20032;-29
2022/03/11 04:18:26;;;;;;;13.93;9.55;;;;;;;5.46;66.15;101674.09;5073940;28;20143;-31
2022/03/11 04:20:54;;;;;;;15.30;9.27;;;;;;;5.47;66.08;101669.41;5073403;28;20040;-29
2022/03/11 04:23:22;;;;;;;14.43;9.55;;;;;;;5.45;66.27;101672.41;5074163;28;20350;-31
2022/03/11 04:25:51;;;;;;;13.82;9.63;;;;;;;5.44;66.21;101669.91;5072637;28;20043;-30
2022/03/11 04:28:20;;;;;;;12.65;9.00;;;;;;;5.40;66.35;101660.41;5062596;28;20091;-30
2022/03/11 04:30:47;;;;;;;12.55;8.65;;;;;;;5.40;66.52;101663.16;5073832;28;20048;-28
2022/03/11 04:33:15;;;;;;;15.10;9.43;;;;;;;5.36;66.66;101670.31;5073397;28;20052;-31
2022/03/11 04:35:43;;;;;;;14.07;9.73;;;;;;;5.32;66.81;101660.81;5073359;28;20379;-27
2022/03/11 04:38:12;;;;;;;15.98;9.63;;;;;;;5.31;66.96;101654.44;5073296;28;20052;-35
2022/03/11 04:40:40;;;;;;;14.05;9.40;;;;;;;5.29;67.14;101658.50;5071182;28;20052;-32
2022/03/11 04:43:09;;;;;;;13.80;8.82;;;;;;;5.28;67.01;101643.00;5072602;28;20509;-31
2022/03/11 04:45:40;;;;;;;14.52;8.40;;;;;;;5.25;67.20;101643.47;5073146;28;20524;-26
2022/03/11 04:48:07;;;;;;;14.32;9.55;;;;;;;5.24;67.33;101637.09;5070780;28;20355;-28
2022/03/11 04:50:35;;;;;;;15.23;9.65;;;;;;;5.24;67.30;101636.25;5069334;28;20221;-26
2022/03/11 04:53:03;;;;;;;12.57;8.85;;;;;;;5.20;67.58;101636.75;5073224;28;20728;-27
2022/03/11 04:55:31;;;;;;;14.88;9.23;;;;;;;5.19;67.09;101635.09;5072875;28;20060;-31
2022/03/11 04:57:59;;;;;;;15.52;9.70;;;;;;;5.17;67.65;101631.72;5073268;28;20048;-29
2022/03/11 05:00:28;;;;;;;14.38;9.73;;;;;;;5.17;67.62;101637.25;5071753;28;20382;-29
2022/03/11 05:02:58;;;;;;;14.93;9.85;;;;;;;5.15;67.77;101625.59;5072640;28;20091;-26
2022/03/11 05:05:26;;;;;;;14.10;8.93;;;;;;;5.13;67.71;101627.78;5073342;28;20052;-30
2022/03/11 05:07:55;;;;;;;15.25;8.88;;;;;;;5.13;67.82;101621.41;5064316;28;20121;-30
2022/03/11 05:10:22;;;;;;;12.10;8.43;;;;;;;5.12;67.71;101630.78;5072699;28;20398;-31
2022/03/11 05:12:50;;;;;;;13.13;9.10;;;;;;;5.09;68.05;101631.25;5072820;28;20063;-29
2022/03/11 05:15:19;;;;;;;13.43;8.73;;;;;;;5.05;68.23;101630.91;5073068;28;20043;-33
2022/03/11 05:17:48;;;;;;;16.38;10.07;;;;;;;5.01;68.49;101638.00;5072052;28;20439;-31
2022/03/11 05:20:16;;;;;;;13.45;9.00;;;;;;;5.00;68.76;101630.78;5072751;28;20052;-29
2022/03/11 05:22:44;;;;;;;14.88;9.10;;;;;;;4.97;68.91;101625.75;5071899;28;20048;-28
2022/03/11 05:25:12;;;;;;;13.38;8.80;;;;;;;4.96;69.31;101626.00;5072419;28;20494;-29
2022/03/11 05:27:40;;;;;;;14.27;9.40;;;;;;;4.94;69.44;101620.72;5072671;28;20615;-27
2022/03/11 05:30:09;;;;;;;12.10;8.75;;;;;;;4.94;69.43;101631.78;5071640;28;20048;-31
2022/03/11 05:32:41;;;;;;;16.67;9.35;;;;;;;4.93;69.66;101619.03;5072714;28;20413;-30
2022/03/11 05:35:10;;;;;;;12.10;8.38;;;;;;;4.91;69.34;101617.59;5069351;28;20044;-30
2022/03/11 05:37:41;;;;;;;12.98;8.40;;;;;;;4.89;69.62;101617.84;5061097;28;20050;-26
2022/03/11 05:40:10;;;;;;;15.18;8.43;;;;;;;4.87;69.94;101619.16;5072557;28;20135;-30
2022/03/11 05:42:39;;;;;;;13.57;8.13;;;;;;;4.85;70.49;101611.09;5072730;28;20106;-28
2022/03/11 05:45:08;;;;;;;15.00;8.82;;;;;;;4.87;70.04;101620.00;5071211;28;20063;-30
2022/03/11 05:47:37;;;;;;;14.68;8.02;;;;;;;4.86;70.04;101618.31;5072317;28;20063;-27
2022/03/11 05:50:05;;;;;;;15.07;8.93;;;;;;;4.83;70.63;101618.78;5070378;28;20453;-29
2022/03/11 05:52:37;;;;;;;15.77;9.77;;;;;;;4.85;70.27;101622.16;5071481;28;20044;-30
2022/03/11 05:55:06;;;;;;;11.75;8.02;;;;;;;4.83;70.50;101610.50;5071839;28;20110;-31
2022/03/11 05:57:34;;;;;;;14.25;9.20;;;;;;;4.84;70.23;101607.50;5070815;28;20044;-27
2022/03/11 06:00:03;;;;;;;13.38;8.30;;;;;;;4.83;70.43;101603.03;5069537;28;20519;-33
2022/03/11 06:02:39;;;;;;;15.55;9.52;;;;;;;4.81;70.73;101616.28;5071621;28;20045;-27
2022/03/11 06:05:09;;;;;;;14.18;8.38;;;;;;;4.81;70.65;101610.75;5070592;28;20070;-30
2022/03/11 06:07:39;;;;;;;13.50;8.55;;;;;;;4.80;70.72;101602.69;5071962;28;20045;-30
2022/03/11 06:10:08;;;;;;;14.32;9.10;;;;;;;4.78;70.75;101605.72;5071892;28;20048;-32
2022/03/11 06:12:36;;;;;;;14.18;8.82;;;;;;;4.78;70.87;101608.47;5071075;28;20051;-28
2022/03/11 06:15:08;;;;;;;11.13;7.60;;;;;;;4.79;71.01;101612.94;5071676;28;20093;-30
2022/03/11 06:17:36;;;;;;;13.85;9.23;;;;;;;4.76;71.42;101613.41;5070401;28;20486;-29
2022/03/11 06:20:05;;;;;;;14.65;8.77;;;;;;;4.78;71.41;101610.41;5069889;28;20055;-27
2022/03/11 06:22:33;;;;;;;14.02;8.38;;;;;;;4.79;71.41;101612.09;5070063;28;20060;-25
2022/03/11 06:25:02;;;;;;;12.65;8.77;;;;;;;4.80;71.43;101614.59;5070179;28;20043;-27
2022/03/11 06:27:30;;;;;;;13.88;8.23;;;;;;;4.80;71.27;101602.69;5070663;28;20048;-30
2022/03/11 06:29:58;;;;;;;15.38;8.65;;;;;;;4.77;71.64;101603.19;5071211;28;20040;-26
2022/03/11 06:32:25;;;;;;;12.07;8.20;;;;;;;4.81;71.73;101615.44;5059223;28;20477;-30
2022/03/11 06:34:54;;;;;;;13.02;8.65;;;;;;;4.80;71.88;101614.59;5069809;28;20047;-28
2022/03/11 06:37:22;;;;;;;12.65;8.60;;;;;;;4.80;71.78;101606.28;5070231;28;20497;-29
2022/03/11 06:39:50;;;;;;;16.13;9.38;;;;;;;4.80;72.37;101602.69;5070153;28;20060;-28
2022/03/11 06:42:19;;;;;;;13.73;8.75;;;;;;;4.82;72.07;101603.28;5069004;28;20054;-29
2022/03/11 06:44:46;;;;;;;13.15;8.98;;;;;;;4.83;72.19;101610.50;5070314;28;20052;-33
2022/03/11 06:47:14;;;;;;;13.57;8.82;;;;;;;4.84;72.25;101609.41;5069323;28;20049;-27
2022/03/11 06:49:43;;;;;;;13.43;9.18;;;;;;;4.86;72.22;101607.25;5066998;28;20063;-30
2022/03/11 06:52:12;;;;;;;17.23;9.30;;;;;;;4.85;72.90;101600.88;5068550;28;20404;-30
2022/03/11 06:54:40;;;;;;;14.88;9.05;;;;;;;4.90;72.66;101602.09;5069205;28;20053;-29
2022/03/11 06:57:08;;;;;;;12.95;8.63;;;;;;;4.94;72.19;101606.03;5069753;28;20084;-30
2022/03/11 06:59:40;;;;;;;14.35;8.93;;;;;;;5.01;72.28;101598.44;5070111;28;20519;-31
2022/03/11 07:02:08;;;;;;;13.13;7.80;;;;;;;5.15;71.99;101603.47;5067707;28;20429;-27
2022/03/11 07:04:36;;;;;;;12.45;7.75;;;;;;;5.39;71.37;101608.94;5068632;28;20051;-36
2022/03/11 07:07:04;;;;;;;15.80;9.30;;;;;;;5.63;70.15;101602.19;5069604;28;20048;-28
2022/03/11 07:09:32;;;;;;;15.40;9.15;;;;;;;5.88;69.03;101590.72;5069145;28;20140;-31
2022/03/11 07:12:03;;;;;;;14.05;8.50;;;;;;;6.10;68.30;101588.09;5069744;28;20040;-31
2022/03/11 07:14:33;;;;;;;13.23;8.82;;;;;;;6.34;66.86;101581.28;5070012;28;20048;-31
2022/03/11 07:17:02;;;;;;;13.57;8.10;;;;;;;6.52;65.66;101578.22;5069135;28;20539;-34
2022/03/11 07:19:30;;;;;;;13.02;8.13;;;;;;;6.68;65.01;101586.78;5067351;28;20049;-28
2022/03/11 07:21:59;;;;;;;15.38;9.35;;;;;;;6.90;64.08;101585.69;5069047;28;20416;-32
2022/03/11 07:24:27;;;;;;;12.43;8.70;;;;;;;7.11;63.10;101584.03;5067121;28;20072;-34
2022/03/11 07:26:55;;;;;;;14.60;8.70;;;;;;;7.26;61.90;101583.38;5069650;28;20045;-30
2022/03/11 07:29:22;;;;;;;14.30;8.60;;;;;;;7.42;61.21;101584.38;5068759;28;20049;-31
2022/03/11 07:31:51;;;;;;;13.98;7.93;;;;;;;7.63;60.07;101577.09;5068485;28;20040;-28
2022/03/11 07:34:23;;;;;;;14.13;8.45;;;;;;;7.77;59.34;101576.44;5069171;28;20044;-34
2022/03/11 07:36:51;;;;;;;15.32;8.73;;;;;;;7.95;58.87;101561.31;5069170;28;20053;-29
2022/03/11 07:39:20;;;;;;;15.23;9.13;;;;;;;8.04;57.60;101572.75;5069543;28;20044;-28
2022/03/11 07:41:49;;;;;;;13.93;8.85;;;;;;;8.16;57.60;101565.09;5070035;28;20051;-32
2022/03/11 07:44:17;;;;;;;13.98;8.75;;;;;;;8.25;56.68;101552.38;5068708;28;20485;-31
2022/03/11 07:46:53;;;;;;;13.80;8.68;;;;;;;8.32;55.70;101558.59;5058609;28;20049;-32
2022/03/11 07:49:23;;;;;;;13.68;8.80;;;;;;;8.50;56.27;101551.75;5067309;28;20048;-31
2022/03/11 07:51:51;;;;;;;15.43;8.90;;;;;;;8.64;54.93;101545.44;5069065;28;20162;-33
2022/03/11 07:54:19;;;;;;;12.90;8.90;;;;;;;8.84;54.92;101550.25;5069159;28;20060;-33
2022/03/11 07:56:47;;;;;;;12.48;8.48;;;;;;;9.02;54.10;101546.16;5066195;28;20040;-29
2022/03/11 07:59:15;;;;;;;14.68;8.80;;;;;;;9.17;53.25;101540.69;5069586;28;20051;-32
2022/03/11 08:01:43;;;;;;;13.70;8.32;;;;;;;9.36;53.02;101540.16;5073572;28;20048;-31
2022/03/11 08:04:13;;;;;;;13.55;8.70;;;;;;;9.65;52.09;101528.22;5073336;28;20056;-28
2022/03/11 08:06:42;;;;;;;12.93;8.40;;;;;;;9.73;50.28;101524.06;5072488;28;20401;-32
2022/03/11 08:09:10;;;;;;;12.05;7.80;;;;;;;9.69;51.49;101522.94;5073247;28;20116;-31
2022/03/11 08:11:37;;;;;;;14.93;8.77;;;;;;;9.79;51.08;101516.56;5072339;28;20509;-33
2022/03/11 08:14:05;;;;;;;12.60;8.30;;;;;;;9.96;50.35;101514.34;5072848;28;20390;-34
2022/03/11 08:16:33;;;;;;;14.52;9.32;;;;;;;10.05;49.84;101517.38;5072378;28;20046;-33
2022/03/11 08:19:02;;;;;;;14.50;8.38;;;;;;;10.00;49.66;101513.47;5071720;28;20047;-32
2022/03/11 08:21:30;;;;;;;11.70;8.25;;;;;;;9.90;49.68;101513.47;5073598;28;20476;-32
2022/03/11 08:23:59;;;;;;;15.38;8.70;;;;;;;9.96;49.55;101501.22;5073753;28;20079;-33
2022/03/11 08:26:28;;;;;;;13.00;8.60;;;;;;;10.02;49.20;101511.25;5072999;28;20036;-32
2022/03/11 08:28:57;;;;;;;13.20;8.60;;;;;;;10.15;48.30;101501.47;5074276;28;20045;-32
2022/03/11 08:31:45;;;;;;;14.80;8.90;;;;;;;10.22;48.51;101501.22;5074345;28;20112;-31
2022/03/11 08:34:13;;;;;;;11.95;8.73;;;;;;;10.27;48.48;101498.41;5072884;28;20037;-34
2022/03/11 08:36:41;;;;;;;13.95;8.98;;;;;;;10.23;47.47;101508.47;5072677;28;20053;-31
2022/03/11 08:39:10;;;;;;;15.25;9.05;;;;;;;10.16;48.00;101499.53;5073496;28;20136;-33
2022/03/11 08:41:38;;;;;;;12.40;8.80;;;;;;;10.12;48.22;101506.78;5072624;28;20058;-36
2022/03/11 08:44:06;;;;;;;13.32;8.95;;;;;;;10.20;48.25;101492.28;5073715;28;20052;-32
2022/03/11 08:46:36;;;;;;;13.75;9.25;;;;;;;10.27;48.12;101493.69;5072555;28;20041;-30
2022/03/11 08:49:04;;;;;;;12.15;8.10;;;;;;;10.36;47.52;101491.16;5073490;28;20055;-31
2022/03/11 08:51:31;;;;;;;13.63;8.75;;;;;;;10.56;47.44;101479.94;5072999;28;20052;-33
2022/03/11 08:53:59;;;;;;;14.07;9.13;;;;;;;10.66;46.97;101491.06;5072528;28;20044;-33
2022/03/11 08:56:28;;;;;;;13.18;9.05;;;;;;;10.80;46.07;101476.47;5073203;28;20045;-31
2022/03/11 08:58:56;;;;;;;13.57;9.70;;;;;;;10.66;45.85;101479.91;5073472;28;20048;-33
2022/03/11 09:01:23;;;;;;;13.88;9.50;;;;;;;10.74;46.44;101483.22;5072412;28;20037;-34
2022/03/11 09:03:52;;;;;;;13.00;9.40;;;;;;;10.85;45.58;101474.50;5071929;28;20132;-31
2022/03/11 09:06:20;;;;;;;13.63;8.88;;;;;;;10.84;45.90;101472.84;5072312;28;20044;-32
2022/03/11 09:08:47;;;;;;;18.48;9.73;;;;;;;10.87;45.74;101475.06;5072237;28;20048;-31
2022/03/11 09:11:15;;;;;;;13.35;9.52;;;;;;;10.77;46.07;101479.88;5072333;28;20043;-30
2022/03/11 09:13:50;;;;;;;13.73;8.73;;;;;;;10.66;46.33;101479.91;5072611;28;20050;-29
2022/03/11 09:16:18;;;;;;;12.30;8.80;;;;;;;10.58;45.23;101476.88;5071902;28;20044;-30
2022/03/11 09:18:46;;;;;;;17.30;10.10;;;;;;;10.50;45.98;101471.88;5072598;28;20052;-33
2022/03/11 09:21:14;;;;;;;13.90;9.35;;;;;;;10.55;46.28;101472.69;5072730;28;20067;-32
2022/03/11 09:23:42;;;;;;;14.70;9.80;;;;;;;10.63;46.04;101460.94;5072017;28;20481;-32
2022/03/11 09:26:10;;;;;;;13.80;9.27;;;;;;;10.77;46.25;101463.97;5072738;28;20497;-29
2022/03/11 09:28:38;;;;;;;15.43;10.30;;;;;;;10.77;45.89;101463.13;5072638;28;20542;-30
2022/03/11 09:31:08;;;;;;;12.48;9.10;;;;;;;10.88;46.37;101451.59;5071366;28;20040;-32
2022/03/11 09:33:37;;;;;;;13.82;9.30;;;;;;;11.15;45.82;101455.94;5072428;28;20482;-32
2022/03/11 09:36:05;;;;;;;14.25;10.25;;;;;;;11.18;45.18;101460.97;5071765;28;20047;-29
2022/03/11 09:38:33;;;;;;;13.18;9.05;;;;;;;11.13;45.43;101444.22;5072226;28;20075;-38
2022/03/11 09:41:04;;;;;;;13.80;9.35;;;;;;;11.23;45.20;101458.94;5072487;28;20040;-35
2022/03/11 09:43:32;;;;;;;17.48;10.05;;;;;;;11.39;44.52;101443.75;5071471;28;20072;-30
2022/03/11 09:46:00;;;;;;;14.95;10.10;;;;;;;11.55;44.96;101449.25;5072211;28;20501;-32
2022/03/11 09:48:29;;;;;;;13.93;9.32;;;;;;;11.68;43.88;101448.56;5072334;28;20051;-36
2022/03/11 09:50:59;;;;;;;13.25;9.52;;;;;;;11.68;44.31;101440.19;5071179;28;20505;-34
2022/03/11 09:53:31;;;;;;;14.32;9.57;;;;;;;11.81;44.24;101430.28;5070614;28;20052;-34
2022/03/11 09:55:59;;;;;;;14.80;9.95;;;;;;;11.94;43.48;101446.41;5072073;28;20037;-30
2022/03/11 09:58:27;;;;;;;15.43;9.85;;;;;;;12.12;43.67;101431.69;5071603;28;20071;-34
2022/03/11 10:00:58;;;;;;;14.18;9.98;;;;;;;12.21;42.90;101437.44;5069017;28;20048;-32
2022/03/11 10:03:29;;;;;;;14.18;10.23;;;;;;;12.15;42.81;101430.25;5071856;28;20071;-28
2022/03/11 10:05:58;;;;;;;14.13;9.18;;;;;;;12.18;43.27;101438.91;5070274;28;20086;-34
2022/03/11 10:08:33;;;;;;;15.50;9.35;;;;;;;12.12;42.87;101412.09;5071825;28;20045;-35
2022/03/11 10:11:28;;;;;;;13.55;9.00;;;;;;;12.10;42.68;101428.34;5071004;28;20052;-28
2022/03/11 10:14:05;;;;;;;14.73;10.02;;;;;;;12.25;43.00;101428.19;5035910;28;20395;-32
2022/03/11 10:16:34;;;;;;;14.18;10.07;;;;;;;12.16;42.65;101409.56;5069400;28;20095;-33
2022/03/11 10:19:03;;;;;;;13.45;9.98;;;;;;;12.23;43.10;101410.84;5070354;28;20048;-34
2022/03/11 10:21:35;;;;;;;19.08;10.35;;;;;;;12.44;42.77;101411.44;5071955;28;20142;-31
2022/03/11 10:24:05;;;;;;;14.00;10.15;;;;;;;12.39;42.28;101409.53;5071738;28;20070;-31
2022/03/11 10:26:35;;;;;;;15.40;9.98;;;;;;;12.10;42.60;101399.53;5070716;28;20041;-35
2022/03/11 10:29:10;;;;;;;14.98;9.80;;;;;;;12.21;43.44;101409.47;5071567;28;20044;-36
2022/03/11 10:31:40;;;;;;;14.30;10.27;;;;;;;12.46;42.49;101397.16;5071223;28;20048;-31
2022/03/11 10:34:12;;;;;;;14.38;10.35;;;;;;;12.42;42.67;101403.34;5070665;28;20507;-33
2022/03/11 10:36:47;;;;;;;14.43;9.77;;;;;;;12.28;42.44;101404.38;5071510;28;20104;-28
2022/03/11 10:39:15;;;;;;;13.80;10.00;;;;;;;12.46;42.71;101400.78;5070565;28;20394;-30
2022/03/11 10:41:43;;;;;;;15.35;10.68;;;;;;;12.54;42.68;101386.13;5071174;28;20489;-33
2022/03/11 10:44:12;;;;;;;17.08;10.65;;;;;;;12.62;42.39;101418.22;5071225;28;20131;-30
2022/03/11 10:46:40;;;;;;;15.07;10.48;;;;;;;12.76;42.59;101397.59;5070425;28;20386;-30
2022/03/11 10:49:08;;;;;;;15.95;10.27;;;;;;;12.81;42.25;101381.84;5071346;28;20047;-33
2022/03/11 10:51:38;;;;;;;15.32;10.23;;;;;;;12.87;41.84;101378.69;5071399;28;20074;-32
2022/03/11 10:54:08;;;;;;;15.98;10.10;;;;;;;12.89;42.30;101375.56;5070433;28;20048;-31
2022/03/11 10:56:39;;;;;;;17.40;10.43;;;;;;;12.95;42.38;101379.97;5071165;28;20076;-33
2022/03/11 10:59:13;;;;;;;15.77;10.77;;;;;;;12.98;41.83;101376.59;5071427;28;20070;-31
2022/03/11 11:01:42;;;;;;;15.32;10.55;;;;;;;13.13;42.17;101370.75;5070529;28;20517;-31
2022/03/11 11:04:12;;;;;;;16.63;11.55;;;;;;;13.30;41.53;101371.06;5071227;28;20145;-28
2022/03/11 11:06:41;;;;;;;13.20;10.13;;;;;;;13.35;41.79;101370.97;5069774;28;20055;-29
2022/03/11 11:09:17;;;;;;;15.57;10.68;;;;;;;13.50;41.44;101371.84;5070321;28;20091;-29
2022/03/11 11:11:45;;;;;;;14.55;10.50;;;;;;;13.42;41.20;101354.56;5071396;28;20393;-33
2022/03/11 11:14:13;;;;;;;15.80;11.10;;;;;;;13.35;41.27;101358.94;5070861;28;20147;-34
2022/03/11 11:16:42;;;;;;;18.10;10.65;;;;;;;13.56;41.45;101367.81;5070906;28;20044;-34
2022/03/11 11:19:12;;;;;;;15.25;9.88;;;;;;;13.60;41.13;101360.44;5071275;28;20095;-34
2022/03/11 11:21:41;;;;;;;14.73;9.98;;;;;;;13.77;41.23;101349.50;5065852;28;20059;-30
2022/03/11 11:24:17;;;;;;;16.63;10.70;;;;;;;13.72;39.85;101352.38;5060337;28;20058;-29
2022/03/11 11:26:47;;;;;;;15.18;10.55;;;;;;;13.79;40.80;101352.81;5071130;28;20052;-32
2022/03/11 11:29:19;;;;;;;13.68;10.00;;;;;;;13.67;40.47;101366.50;5070347;28;20508;-33